sensor_id;sensor_type;location;lat;lon;timestamp;temperature;humidity
8832;DHT22;4452;50.756;4.472;2022-10-13T00:00:26;11.70;99.90
8832;DHT22;4452;50.756;4.472;2022-10-13T00:02:52;11.70;99.90
8832;DHT22;4452;50.756;4.472;2022-10-13T00:05:17;11.70;99.90
8832;DHT22;4452;50.756;4.472;2022-10-13T00:07:43;11.60;99.90
8832;DHT22;4452;50.756;4.472;2022-10-13T00:10:09;11.60;99.90
8832;DHT22;4452;50.756;4.472;2022-10-13T00:12:36;11.60;99.90
8832;DHT22;4452;50.756;4.472;2022-10-13T00:15:03;11.60;99.90
8832;DHT22;4452;50.756;4.472;2022-10-13T00:17:29;11.60;99.90
8832;DHT22;4452;50.756;4.472;2022-10-13T00:19:54;11.60;99.90
8832;DHT22;4452;50.756;4.472;2022-10-13T00:22:20;11.60;99.90
8832;DHT22;4452;50.756;4.472;2022-10-13T00:24:50;11.60;99.90
8832;DHT22;4452;50.756;4.472;2022-10-13T00:27:16;11.60;99.90
8832;DHT22;4452;50.756;4.472;2022-10-13T00:29:41;11.60;99.90
8832;DHT22;4452;50.756;4.472;2022-10-13T00:32:07;11.60;99.90
8832;DHT22;4452;50.756;4.472;2022-10-13T00:34:32;11.60;99.90
8832;DHT22;4452;50.756;4.472;2022-10-13T00:36:58;11.60;99.90
8832;DHT22;4452;50.756;4.472;2022-10-13T00:39:24;11.60;99.90
8832;DHT22;4452;50.756;4.472;2022-10-13T00:41:50;11.60;99.90
8832;DHT22;4452;50.756;4.472;2022-10-13T00:47:20;11.60;99.90
8832;DHT22;4452;50.756;4.472;2022-10-13T00:49:46;11.60;99.90
8832;DHT22;4452;50.756;4.472;2022-10-13T00:52:13;11.60;99.90
8832;DHT22;4452;50.756;4.472;2022-10-13T00:54:39;11.60;99.90
8832;DHT22;4452;50.756;4.472;2022-10-13T00:57:06;11.60;99.90
8832;DHT22;4452;50.756;4.472;2022-10-13T00:59:33;11.60;99.90
8832;DHT22;4452;50.756;4.472;2022-10-13T01:01:59;11.60;99.90
8832;DHT22;4452;50.756;4.472;2022-10-13T01:04:31;11.70;99.90
8832;DHT22;4452;50.756;4.472;2022-10-13T01:06:57;11.70;99.90
8832;DHT22;4452;50.756;4.472;2022-10-13T01:09:24;11.60;99.90
8832;DHT22;4452;50.756;4.472;2022-10-13T01:14:37;11.70;99.90
8832;DHT22;4452;50.756;4.472;2022-10-13T01:20:44;11.70;99.90
8832;DHT22;4452;50.756;4.472;2022-10-13T01:23:25;11.70;99.90
8832;DHT22;4452;50.756;4.472;2022-10-13T01:29:10;11.70;99.90
8832;DHT22;4452;50.756;4.472;2022-10-13T01:34:38;11.70;99.90
8832;DHT22;4452;50.756;4.472;2022-10-13T01:42:42;11.60;99.90
8832;DHT22;4452;50.756;4.472;2022-10-13T01:45:10;11.60;99.90
8832;DHT22;4452;50.756;4.472;2022-10-13T01:47:40;11.60;99.90
8832;DHT22;4452;50.756;4.472;2022-10-13T01:50:06;11.60;99.90
8832;DHT22;4452;50.756;4.472;2022-10-13T01:52:36;11.60;99.90
8832;DHT22;4452;50.756;4.472;2022-10-13T01:55:10;11.60;99.90
8832;DHT22;4452;50.756;4.472;2022-10-13T01:57:40;11.60;99.90
8832;DHT22;4452;50.756;4.472;2022-10-13T02:05:44;11.70;99.90
8832;DHT22;4452;50.756;4.472;2022-10-13T02:08:24;11.70;99.90
8832;DHT22;4452;50.756;4.472;2022-10-13T02:11:04;11.60;99.90
8832;DHT22;4452;50.756;4.472;2022-10-13T02:13:33;11.60;99.90
8832;DHT22;4452;50.756;4.472;2022-10-13T02:16:01;11.60;99.90
8832;DHT22;4452;50.756;4.472;2022-10-13T02:18:32;11.60;99.90
8832;DHT22;4452;50.756;4.472;2022-10-13T02:21:00;11.50;99.90
8832;DHT22;4452;50.756;4.472;2022-10-13T02:23:26;11.60;99.90
8832;DHT22;4452;50.756;4.472;2022-10-13T02:25:52;11.50;99.90
8832;DHT22;4452;50.756;4.472;2022-10-13T02:28:20;11.50;99.90
8832;DHT22;4452;50.756;4.472;2022-10-13T02:30:46;11.50;99.90
8832;DHT22;4452;50.756;4.472;2022-10-13T02:33:12;11.40;99.90
8832;DHT22;4452;50.756;4.472;2022-10-13T02:35:39;11.50;99.90
8832;DHT22;4452;50.756;4.472;2022-10-13T02:38:04;11.40;99.90
8832;DHT22;4452;50.756;4.472;2022-10-13T02:40:30;11.50;99.90
8832;DHT22;4452;50.756;4.472;2022-10-13T02:42:56;11.50;99.90
8832;DHT22;4452;50.756;4.472;2022-10-13T02:45:22;11.40;99.90
8832;DHT22;4452;50.756;4.472;2022-10-13T02:47:47;11.40;99.90
8832;DHT22;4452;50.756;4.472;2022-10-13T02:50:13;11.40;99.90
8832;DHT22;4452;50.756;4.472;2022-10-13T02:52:39;11.40;99.90
8832;DHT22;4452;50.756;4.472;2022-10-13T02:55:05;11.40;99.90
8832;DHT22;4452;50.756;4.472;2022-10-13T02:57:31;11.30;99.90
8832;DHT22;4452;50.756;4.472;2022-10-13T02:59:56;11.30;99.90
8832;DHT22;4452;50.756;4.472;2022-10-13T03:02:22;11.30;99.90
8832;DHT22;4452;50.756;4.472;2022-10-13T03:04:48;11.20;99.90
8832;DHT22;4452;50.756;4.472;2022-10-13T03:07:13;11.10;99.90
8832;DHT22;4452;50.756;4.472;2022-10-13T03:09:39;11.20;99.90
8832;DHT22;4452;50.756;4.472;2022-10-13T03:12:05;11.20;99.90
8832;DHT22;4452;50.756;4.472;2022-10-13T03:14:31;11.20;99.90
8832;DHT22;4452;50.756;4.472;2022-10-13T03:16:56;11.20;99.90
8832;DHT22;4452;50.756;4.472;2022-10-13T03:19:22;11.20;99.90
8832;DHT22;4452;50.756;4.472;2022-10-13T03:21:48;11.20;99.90
8832;DHT22;4452;50.756;4.472;2022-10-13T03:24:14;11.20;99.90
8832;DHT22;4452;50.756;4.472;2022-10-13T03:26:39;11.10;99.90
8832;DHT22;4452;50.756;4.472;2022-10-13T03:29:05;11.10;99.90
8832;DHT22;4452;50.756;4.472;2022-10-13T03:31:32;11.20;99.90
8832;DHT22;4452;50.756;4.472;2022-10-13T03:33:57;11.10;99.90
8832;DHT22;4452;50.756;4.472;2022-10-13T03:36:23;11.20;99.90
8832;DHT22;4452;50.756;4.472;2022-10-13T03:38:49;11.20;99.90
8832;DHT22;4452;50.756;4.472;2022-10-13T03:41:16;11.20;99.90
8832;DHT22;4452;50.756;4.472;2022-10-13T03:43:43;11.30;99.90
8832;DHT22;4452;50.756;4.472;2022-10-13T03:46:13;11.40;99.90
8832;DHT22;4452;50.756;4.472;2022-10-13T03:48:40;11.40;99.90
8832;DHT22;4452;50.756;4.472;2022-10-13T03:51:07;11.40;99.90
8832;DHT22;4452;50.756;4.472;2022-10-13T03:53:33;11.40;99.90
8832;DHT22;4452;50.756;4.472;2022-10-13T03:55:59;11.40;99.90
8832;DHT22;4452;50.756;4.472;2022-10-13T03:58:25;11.40;99.90
8832;DHT22;4452;50.756;4.472;2022-10-13T04:00:53;11.40;99.90
8832;DHT22;4452;50.756;4.472;2022-10-13T04:03:20;11.30;99.90
8832;DHT22;4452;50.756;4.472;2022-10-13T04:05:46;11.30;99.90
8832;DHT22;4452;50.756;4.472;2022-10-13T04:08:12;11.30;99.90
8832;DHT22;4452;50.756;4.472;2022-10-13T04:10:38;11.30;99.90
8832;DHT22;4452;50.756;4.472;2022-10-13T04:13:04;11.30;99.90
8832;DHT22;4452;50.756;4.472;2022-10-13T04:15:34;11.20;99.90
8832;DHT22;4452;50.756;4.472;2022-10-13T04:18:00;11.20;99.90
8832;DHT22;4452;50.756;4.472;2022-10-13T04:20:26;11.10;99.90
8832;DHT22;4452;50.756;4.472;2022-10-13T04:22:51;11.10;99.90
8832;DHT22;4452;50.756;4.472;2022-10-13T04:25:17;11.10;99.90
8832;DHT22;4452;50.756;4.472;2022-10-13T04:27:42;11.10;99.90
8832;DHT22;4452;50.756;4.472;2022-10-13T04:30:09;11.00;99.90
8832;DHT22;4452;50.756;4.472;2022-10-13T04:32:34;11.00;99.90
8832;DHT22;4452;50.756;4.472;2022-10-13T04:35:00;11.00;99.90
8832;DHT22;4452;50.756;4.472;2022-10-13T04:37:26;11.00;99.90
8832;DHT22;4452;50.756;4.472;2022-10-13T04:39:51;11.10;99.90
8832;DHT22;4452;50.756;4.472;2022-10-13T04:42:17;11.10;99.90
8832;DHT22;4452;50.756;4.472;2022-10-13T04:44:43;11.10;99.90
8832;DHT22;4452;50.756;4.472;2022-10-13T04:47:08;11.10;99.90
8832;DHT22;4452;50.756;4.472;2022-10-13T04:49:34;11.10;99.90
8832;DHT22;4452;50.756;4.472;2022-10-13T04:51:59;11.10;99.90
8832;DHT22;4452;50.756;4.472;2022-10-13T04:54:25;11.20;99.90
8832;DHT22;4452;50.756;4.472;2022-10-13T04:56:50;11.20;99.90
8832;DHT22;4452;50.756;4.472;2022-10-13T04:59:16;11.10;99.90
8832;DHT22;4452;50.756;4.472;2022-10-13T05:01:42;11.20;99.90
8832;DHT22;4452;50.756;4.472;2022-10-13T05:04:09;11.20;99.90
8832;DHT22;4452;50.756;4.472;2022-10-13T05:06:37;11.20;99.90
8832;DHT22;4452;50.756;4.472;2022-10-13T05:09:12;11.20;99.90
8832;DHT22;4452;50.756;4.472;2022-10-13T05:11:40;11.20;99.90
8832;DHT22;4452;50.756;4.472;2022-10-13T05:14:06;11.20;99.90
8832;DHT22;4452;50.756;4.472;2022-10-13T05:16:31;11.20;99.90
8832;DHT22;4452;50.756;4.472;2022-10-13T05:18:57;11.20;99.90
8832;DHT22;4452;50.756;4.472;2022-10-13T05:21:27;11.20;99.90
8832;DHT22;4452;50.756;4.472;2022-10-13T05:23:56;11.30;99.90
8832;DHT22;4452;50.756;4.472;2022-10-13T05:26:26;11.30;99.90
8832;DHT22;4452;50.756;4.472;2022-10-13T05:28:57;11.30;99.90
8832;DHT22;4452;50.756;4.472;2022-10-13T05:31:25;11.30;99.90
8832;DHT22;4452;50.756;4.472;2022-10-13T05:33:51;11.30;99.90
8832;DHT22;4452;50.756;4.472;2022-10-13T05:36:19;11.30;99.90
8832;DHT22;4452;50.756;4.472;2022-10-13T05:38:53;11.30;99.90
8832;DHT22;4452;50.756;4.472;2022-10-13T05:41:19;11.40;99.90
8832;DHT22;4452;50.756;4.472;2022-10-13T05:43:46;11.30;99.90
8832;DHT22;4452;50.756;4.472;2022-10-13T05:46:11;11.30;99.90
8832;DHT22;4452;50.756;4.472;2022-10-13T05:48:37;11.30;99.90
8832;DHT22;4452;50.756;4.472;2022-10-13T05:51:13;11.30;99.90
8832;DHT22;4452;50.756;4.472;2022-10-13T05:53:42;11.30;99.90
8832;DHT22;4452;50.756;4.472;2022-10-13T05:56:14;11.30;99.90
8832;DHT22;4452;50.756;4.472;2022-10-13T05:58:44;11.30;99.90
8832;DHT22;4452;50.756;4.472;2022-10-13T06:01:15;11.30;99.90
8832;DHT22;4452;50.756;4.472;2022-10-13T06:03:42;11.30;99.90
8832;DHT22;4452;50.756;4.472;2022-10-13T06:06:09;11.40;99.90
8832;DHT22;4452;50.756;4.472;2022-10-13T06:08:35;11.40;99.90
8832;DHT22;4452;50.756;4.472;2022-10-13T06:11:03;11.40;99.90
8832;DHT22;4452;50.756;4.472;2022-10-13T06:13:28;11.40;99.90
8832;DHT22;4452;50.756;4.472;2022-10-13T06:15:54;11.40;99.90
8832;DHT22;4452;50.756;4.472;2022-10-13T06:18:20;11.40;99.90
8832;DHT22;4452;50.756;4.472;2022-10-13T06:20:45;11.50;99.90
8832;DHT22;4452;50.756;4.472;2022-10-13T06:23:11;11.50;99.90
8832;DHT22;4452;50.756;4.472;2022-10-13T06:25:37;11.50;99.90
8832;DHT22;4452;50.756;4.472;2022-10-13T06:28:03;11.50;99.90
8832;DHT22;4452;50.756;4.472;2022-10-13T06:30:29;11.50;99.90
8832;DHT22;4452;50.756;4.472;2022-10-13T06:32:54;11.60;99.90
8832;DHT22;4452;50.756;4.472;2022-10-13T06:35:21;11.60;99.90
8832;DHT22;4452;50.756;4.472;2022-10-13T06:37:48;11.60;99.90
8832;DHT22;4452;50.756;4.472;2022-10-13T06:40:14;11.60;99.90
8832;DHT22;4452;50.756;4.472;2022-10-13T06:42:40;11.70;99.90
8832;DHT22;4452;50.756;4.472;2022-10-13T06:45:06;11.60;99.90
8832;DHT22;4452;50.756;4.472;2022-10-13T06:47:32;11.70;99.90
8832;DHT22;4452;50.756;4.472;2022-10-13T06:49:57;11.70;99.90
8832;DHT22;4452;50.756;4.472;2022-10-13T06:52:23;11.70;99.90
8832;DHT22;4452;50.756;4.472;2022-10-13T06:54:49;11.70;99.90
8832;DHT22;4452;50.756;4.472;2022-10-13T06:57:14;11.70;99.90
8832;DHT22;4452;50.756;4.472;2022-10-13T06:59:40;11.80;99.90
8832;DHT22;4452;50.756;4.472;2022-10-13T07:02:05;11.80;99.90
8832;DHT22;4452;50.756;4.472;2022-10-13T07:04:32;11.80;99.90
8832;DHT22;4452;50.756;4.472;2022-10-13T07:06:59;11.80;99.90
8832;DHT22;4452;50.756;4.472;2022-10-13T07:09:25;11.90;99.90
8832;DHT22;4452;50.756;4.472;2022-10-13T07:11:51;11.90;99.90
8832;DHT22;4452;50.756;4.472;2022-10-13T07:14:17;11.90;99.90
8832;DHT22;4452;50.756;4.472;2022-10-13T07:16:43;11.90;99.90
8832;DHT22;4452;50.756;4.472;2022-10-13T07:19:08;11.90;99.90
8832;DHT22;4452;50.756;4.472;2022-10-13T07:21:34;11.90;99.90
8832;DHT22;4452;50.756;4.472;2022-10-13T07:24:01;11.90;99.90
8832;DHT22;4452;50.756;4.472;2022-10-13T07:26:27;11.90;99.90
8832;DHT22;4452;50.756;4.472;2022-10-13T07:28:52;11.90;99.90
8832;DHT22;4452;50.756;4.472;2022-10-13T07:31:19;11.90;99.90
8832;DHT22;4452;50.756;4.472;2022-10-13T07:33:47;11.90;99.90
8832;DHT22;4452;50.756;4.472;2022-10-13T07:36:13;11.90;99.90
8832;DHT22;4452;50.756;4.472;2022-10-13T07:38:39;11.90;99.90
8832;DHT22;4452;50.756;4.472;2022-10-13T07:41:07;11.90;99.90
8832;DHT22;4452;50.756;4.472;2022-10-13T07:43:33;12.00;99.90
8832;DHT22;4452;50.756;4.472;2022-10-13T07:46:00;11.90;99.90
8832;DHT22;4452;50.756;4.472;2022-10-13T07:48:26;12.00;99.90
8832;DHT22;4452;50.756;4.472;2022-10-13T07:50:52;12.00;99.90
8832;DHT22;4452;50.756;4.472;2022-10-13T07:53:18;12.00;99.90
8832;DHT22;4452;50.756;4.472;2022-10-13T07:55:44;12.00;99.90
8832;DHT22;4452;50.756;4.472;2022-10-13T07:58:09;12.00;99.90
8832;DHT22;4452;50.756;4.472;2022-10-13T08:00:35;12.00;99.90
8832;DHT22;4452;50.756;4.472;2022-10-13T08:03:01;12.10;99.90
8832;DHT22;4452;50.756;4.472;2022-10-13T08:05:27;12.10;99.90
8832;DHT22;4452;50.756;4.472;2022-10-13T08:07:52;12.10;99.90
8832;DHT22;4452;50.756;4.472;2022-10-13T08:10:18;12.20;99.90
8832;DHT22;4452;50.756;4.472;2022-10-13T08:12:45;12.20;99.90
8832;DHT22;4452;50.756;4.472;2022-10-13T08:15:11;12.20;99.90
8832;DHT22;4452;50.756;4.472;2022-10-13T08:17:37;12.20;99.90
8832;DHT22;4452;50.756;4.472;2022-10-13T08:20:04;12.20;99.90
8832;DHT22;4452;50.756;4.472;2022-10-13T08:22:30;12.30;99.90
8832;DHT22;4452;50.756;4.472;2022-10-13T08:24:58;12.30;99.90
8832;DHT22;4452;50.756;4.472;2022-10-13T08:27:24;12.40;99.90
8832;DHT22;4452;50.756;4.472;2022-10-13T08:29:50;12.50;99.90
8832;DHT22;4452;50.756;4.472;2022-10-13T08:32:16;12.50;99.90
8832;DHT22;4452;50.756;4.472;2022-10-13T08:34:42;12.70;99.90
8832;DHT22;4452;50.756;4.472;2022-10-13T08:37:16;12.80;99.90
8832;DHT22;4452;50.756;4.472;2022-10-13T08:39:42;12.90;99.90
8832;DHT22;4452;50.756;4.472;2022-10-13T08:42:19;13.00;99.90
8832;DHT22;4452;50.756;4.472;2022-10-13T08:45:01;13.10;99.90
8832;DHT22;4452;50.756;4.472;2022-10-13T08:47:41;13.10;99.90
8832;DHT22;4452;50.756;4.472;2022-10-13T08:50:18;13.30;99.90
8832;DHT22;4452;50.756;4.472;2022-10-13T08:55:29;13.30;99.90
8832;DHT22;4452;50.756;4.472;2022-10-13T08:57:55;13.40;99.90
8832;DHT22;4452;50.756;4.472;2022-10-13T09:00:21;13.40;99.90
8832;DHT22;4452;50.756;4.472;2022-10-13T09:02:48;13.30;99.90
8832;DHT22;4452;50.756;4.472;2022-10-13T09:05:31;13.40;99.90
8832;DHT22;4452;50.756;4.472;2022-10-13T09:08:01;13.50;99.90
8832;DHT22;4452;50.756;4.472;2022-10-13T09:10:27;13.50;99.90
8832;DHT22;4452;50.756;4.472;2022-10-13T09:12:53;13.70;99.90
8832;DHT22;4452;50.756;4.472;2022-10-13T09:15:20;13.80;99.90
8832;DHT22;4452;50.756;4.472;2022-10-13T09:18:09;13.80;99.90
8832;DHT22;4452;50.756;4.472;2022-10-13T09:20:36;14.00;99.90
8832;DHT22;4452;50.756;4.472;2022-10-13T09:23:05;14.10;99.90
8832;DHT22;4452;50.756;4.472;2022-10-13T09:25:42;14.00;99.90
8832;DHT22;4452;50.756;4.472;2022-10-13T09:28:15;13.80;99.90
8832;DHT22;4452;50.756;4.472;2022-10-13T09:30:45;13.90;99.90
8832;DHT22;4452;50.756;4.472;2022-10-13T09:35:38;14.10;99.90
8832;DHT22;4452;50.756;4.472;2022-10-13T09:38:10;14.20;99.90
8832;DHT22;4452;50.756;4.472;2022-10-13T09:40:37;14.20;99.90
8832;DHT22;4452;50.756;4.472;2022-10-13T09:43:19;14.20;99.90
8832;DHT22;4452;50.756;4.472;2022-10-13T09:45:49;14.30;99.90
8832;DHT22;4452;50.756;4.472;2022-10-13T09:48:22;14.40;99.90
8832;DHT22;4452;50.756;4.472;2022-10-13T09:50:51;14.60;99.90
8832;DHT22;4452;50.756;4.472;2022-10-13T09:53:25;14.80;99.90
8832;DHT22;4452;50.756;4.472;2022-10-13T09:56:22;14.60;99.90
8832;DHT22;4452;50.756;4.472;2022-10-13T09:59:06;14.70;99.90
8832;DHT22;4452;50.756;4.472;2022-10-13T10:01:38;14.60;99.90
8832;DHT22;4452;50.756;4.472;2022-10-13T10:04:29;14.70;99.90
8832;DHT22;4452;50.756;4.472;2022-10-13T10:06:56;14.70;99.90
8832;DHT22;4452;50.756;4.472;2022-10-13T10:09:39;14.60;99.90
8832;DHT22;4452;50.756;4.472;2022-10-13T10:12:09;14.60;99.90
8832;DHT22;4452;50.756;4.472;2022-10-13T10:14:37;14.60;99.90
8832;DHT22;4452;50.756;4.472;2022-10-13T10:17:35;14.60;99.90
8832;DHT22;4452;50.756;4.472;2022-10-13T10:25:57;14.40;99.90
8832;DHT22;4452;50.756;4.472;2022-10-13T10:28:45;14.40;99.90
8832;DHT22;4452;50.756;4.472;2022-10-13T10:37:13;14.10;99.90
8832;DHT22;4452;50.756;4.472;2022-10-13T10:39:46;14.00;99.90
8832;DHT22;4452;50.756;4.472;2022-10-13T10:44:58;13.90;99.90
8832;DHT22;4452;50.756;4.472;2022-10-13T10:47:28;14.00;99.90
8832;DHT22;4452;50.756;4.472;2022-10-13T10:50:04;14.00;99.90
8832;DHT22;4452;50.756;4.472;2022-10-13T10:52:42;13.90;99.90
8832;DHT22;4452;50.756;4.472;2022-10-13T10:55:38;13.80;99.90
8832;DHT22;4452;50.756;4.472;2022-10-13T11:00:44;13.70;99.90
8832;DHT22;4452;50.756;4.472;2022-10-13T11:08:48;13.60;99.90
8832;DHT22;4452;50.756;4.472;2022-10-13T11:16:31;13.70;99.90
8832;DHT22;4452;50.756;4.472;2022-10-13T11:21:24;13.60;99.90
8832;DHT22;4452;50.756;4.472;2022-10-13T11:23:50;13.60;99.90
8832;DHT22;4452;50.756;4.472;2022-10-13T11:26:29;13.50;99.90
8832;DHT22;4452;50.756;4.472;2022-10-13T11:28:55;13.50;99.90
8832;DHT22;4452;50.756;4.472;2022-10-13T11:31:27;13.50;99.90
8832;DHT22;4452;50.756;4.472;2022-10-13T11:33:56;13.50;99.90
8832;DHT22;4452;50.756;4.472;2022-10-13T11:36:41;13.40;99.90
8832;DHT22;4452;50.756;4.472;2022-10-13T11:42:00;13.40;99.90
8832;DHT22;4452;50.756;4.472;2022-10-13T11:44:48;13.40;99.90
8832;DHT22;4452;50.756;4.472;2022-10-13T11:47:32;13.40;99.90
8832;DHT22;4452;50.756;4.472;2022-10-13T11:55:49;13.50;99.90
8832;DHT22;4452;50.756;4.472;2022-10-13T11:58:21;13.60;99.90
8832;DHT22;4452;50.756;4.472;2022-10-13T12:00:54;13.80;99.90
8832;DHT22;4452;50.756;4.472;2022-10-13T12:03:30;13.80;99.90
8832;DHT22;4452;50.756;4.472;2022-10-13T12:06:47;13.90;99.90
8832;DHT22;4452;50.756;4.472;2022-10-13T12:08:49;14.00;99.90
8832;DHT22;4452;50.756;4.472;2022-10-13T12:11:24;14.20;99.90
8832;DHT22;4452;50.756;4.472;2022-10-13T12:13:51;14.40;99.90
8832;DHT22;4452;50.756;4.472;2022-10-13T12:16:17;14.60;99.90
8832;DHT22;4452;50.756;4.472;2022-10-13T12:18:43;14.90;99.90
8832;DHT22;4452;50.756;4.472;2022-10-13T12:21:20;15.10;99.90
8832;DHT22;4452;50.756;4.472;2022-10-13T12:23:47;15.00;99.90
8832;DHT22;4452;50.756;4.472;2022-10-13T12:26:22;15.00;99.90
8832;DHT22;4452;50.756;4.472;2022-10-13T12:28:49;15.10;99.90
8832;DHT22;4452;50.756;4.472;2022-10-13T12:31:27;15.10;99.90
8832;DHT22;4452;50.756;4.472;2022-10-13T12:34:03;15.20;99.90
8832;DHT22;4452;50.756;4.472;2022-10-13T12:36:29;15.20;99.90
8832;DHT22;4452;50.756;4.472;2022-10-13T12:38:59;15.40;99.90
8832;DHT22;4452;50.756;4.472;2022-10-13T12:41:29;15.60;99.90
8832;DHT22;4452;50.756;4.472;2022-10-13T12:43:56;15.50;99.90
8832;DHT22;4452;50.756;4.472;2022-10-13T12:46:42;15.40;99.90
8832;DHT22;4452;50.756;4.472;2022-10-13T12:49:27;15.50;99.90
8832;DHT22;4452;50.756;4.472;2022-10-13T12:54:30;15.40;99.90
8832;DHT22;4452;50.756;4.472;2022-10-13T12:56:59;15.30;99.90
8832;DHT22;4452;50.756;4.472;2022-10-13T12:59:27;15.20;99.90
8832;DHT22;4452;50.756;4.472;2022-10-13T13:02:01;15.10;99.90
8832;DHT22;4452;50.756;4.472;2022-10-13T13:07:00;15.30;99.90
8832;DHT22;4452;50.756;4.472;2022-10-13T13:09:33;15.20;99.90
8832;DHT22;4452;50.756;4.472;2022-10-13T13:14:33;15.10;99.90
8832;DHT22;4452;50.756;4.472;2022-10-13T13:17:02;15.10;99.90
8832;DHT22;4452;50.756;4.472;2022-10-13T13:19:30;15.10;99.90
8832;DHT22;4452;50.756;4.472;2022-10-13T13:21:56;14.90;99.90
8832;DHT22;4452;50.756;4.472;2022-10-13T13:24:22;14.80;99.90
8832;DHT22;4452;50.756;4.472;2022-10-13T13:26:48;14.80;99.90
8832;DHT22;4452;50.756;4.472;2022-10-13T13:29:13;14.70;99.90
8832;DHT22;4452;50.756;4.472;2022-10-13T13:31:39;14.70;99.90
8832;DHT22;4452;50.756;4.472;2022-10-13T13:34:04;14.60;99.90
8832;DHT22;4452;50.756;4.472;2022-10-13T13:36:30;14.50;99.90
8832;DHT22;4452;50.756;4.472;2022-10-13T13:38:56;14.40;99.90
8832;DHT22;4452;50.756;4.472;2022-10-13T13:41:22;14.30;99.90
8832;DHT22;4452;50.756;4.472;2022-10-13T13:43:52;14.30;99.90
8832;DHT22;4452;50.756;4.472;2022-10-13T13:46:23;14.30;99.90
8832;DHT22;4452;50.756;4.472;2022-10-13T13:48:49;14.20;99.90
8832;DHT22;4452;50.756;4.472;2022-10-13T13:51:15;14.20;99.90
8832;DHT22;4452;50.756;4.472;2022-10-13T13:53:41;14.20;99.90
8832;DHT22;4452;50.756;4.472;2022-10-13T13:56:18;14.20;99.90
8832;DHT22;4452;50.756;4.472;2022-10-13T13:58:44;14.10;99.90
8832;DHT22;4452;50.756;4.472;2022-10-13T14:01:11;14.20;99.90
8832;DHT22;4452;50.756;4.472;2022-10-13T14:03:37;14.30;99.90
8832;DHT22;4452;50.756;4.472;2022-10-13T14:06:02;14.20;99.90
8832;DHT22;4452;50.756;4.472;2022-10-13T14:08:35;14.30;99.90
8832;DHT22;4452;50.756;4.472;2022-10-13T14:11:06;14.30;99.90
8832;DHT22;4452;50.756;4.472;2022-10-13T14:13:33;14.20;99.90
8832;DHT22;4452;50.756;4.472;2022-10-13T14:15:59;14.20;99.90
8832;DHT22;4452;50.756;4.472;2022-10-13T14:18:25;14.20;99.90
8832;DHT22;4452;50.756;4.472;2022-10-13T14:20:51;14.20;99.90
8832;DHT22;4452;50.756;4.472;2022-10-13T14:23:17;14.20;99.90
8832;DHT22;4452;50.756;4.472;2022-10-13T14:25:42;14.30;99.90
8832;DHT22;4452;50.756;4.472;2022-10-13T14:28:08;14.30;99.90
8832;DHT22;4452;50.756;4.472;2022-10-13T14:30:37;14.30;99.90
8832;DHT22;4452;50.756;4.472;2022-10-13T14:33:02;14.30;99.90
8832;DHT22;4452;50.756;4.472;2022-10-13T14:35:30;14.30;99.90
8832;DHT22;4452;50.756;4.472;2022-10-13T14:37:57;14.20;99.90
8832;DHT22;4452;50.756;4.472;2022-10-13T14:40:22;14.20;99.90
8832;DHT22;4452;50.756;4.472;2022-10-13T14:42:48;14.10;99.90
8832;DHT22;4452;50.756;4.472;2022-10-13T14:45:14;14.10;99.90
8832;DHT22;4452;50.756;4.472;2022-10-13T14:47:40;14.00;99.90
8832;DHT22;4452;50.756;4.472;2022-10-13T14:50:06;14.00;99.90
8832;DHT22;4452;50.756;4.472;2022-10-13T14:52:32;13.90;99.90
8832;DHT22;4452;50.756;4.472;2022-10-13T14:54:58;13.90;99.90
8832;DHT22;4452;50.756;4.472;2022-10-13T14:57:24;13.90;99.90
8832;DHT22;4452;50.756;4.472;2022-10-13T14:59:49;13.80;99.90
8832;DHT22;4452;50.756;4.472;2022-10-13T15:02:15;13.80;99.90
8832;DHT22;4452;50.756;4.472;2022-10-13T15:04:41;13.80;99.90
8832;DHT22;4452;50.756;4.472;2022-10-13T15:07:06;13.70;99.90
8832;DHT22;4452;50.756;4.472;2022-10-13T15:09:32;13.70;99.90
8832;DHT22;4452;50.756;4.472;2022-10-13T15:11:57;13.70;99.90
8832;DHT22;4452;50.756;4.472;2022-10-13T15:14:23;13.70;99.90
8832;DHT22;4452;50.756;4.472;2022-10-13T15:16:49;13.70;99.90
8832;DHT22;4452;50.756;4.472;2022-10-13T15:19:15;13.60;99.90
8832;DHT22;4452;50.756;4.472;2022-10-13T15:21:40;13.60;99.90
8832;DHT22;4452;50.756;4.472;2022-10-13T15:24:06;13.60;99.90
8832;DHT22;4452;50.756;4.472;2022-10-13T15:26:33;13.60;99.90
8832;DHT22;4452;50.756;4.472;2022-10-13T15:28:59;13.60;99.90
8832;DHT22;4452;50.756;4.472;2022-10-13T15:31:24;13.60;99.90
8832;DHT22;4452;50.756;4.472;2022-10-13T15:33:51;13.70;99.90
8832;DHT22;4452;50.756;4.472;2022-10-13T15:36:18;13.60;99.90
8832;DHT22;4452;50.756;4.472;2022-10-13T15:38:44;13.60;99.90
8832;DHT22;4452;50.756;4.472;2022-10-13T15:41:10;13.50;99.90
8832;DHT22;4452;50.756;4.472;2022-10-13T15:43:36;13.50;99.90
8832;DHT22;4452;50.756;4.472;2022-10-13T15:46:09;13.50;99.90
8832;DHT22;4452;50.756;4.472;2022-10-13T16:10:16;13.60;99.90
8832;DHT22;4452;50.756;4.472;2022-10-13T16:12:43;13.60;99.90
8832;DHT22;4452;50.756;4.472;2022-10-13T16:15:09;13.60;99.90
8832;DHT22;4452;50.756;4.472;2022-10-13T16:17:35;13.60;99.90
8832;DHT22;4452;50.756;4.472;2022-10-13T16:20:03;13.60;99.90
8832;DHT22;4452;50.756;4.472;2022-10-13T16:22:28;13.60;99.90
8832;DHT22;4452;50.756;4.472;2022-10-13T16:24:54;13.60;99.90
8832;DHT22;4452;50.756;4.472;2022-10-13T16:27:20;13.60;99.90
8832;DHT22;4452;50.756;4.472;2022-10-13T16:29:45;13.50;99.90
8832;DHT22;4452;50.756;4.472;2022-10-13T16:32:11;13.50;99.90
8832;DHT22;4452;50.756;4.472;2022-10-13T16:34:37;13.50;99.90
8832;DHT22;4452;50.756;4.472;2022-10-13T16:37:02;13.50;99.90
8832;DHT22;4452;50.756;4.472;2022-10-13T16:39:28;13.50;99.90
8832;DHT22;4452;50.756;4.472;2022-10-13T16:41:54;13.60;99.90
8832;DHT22;4452;50.756;4.472;2022-10-13T16:44:19;13.50;99.90
8832;DHT22;4452;50.756;4.472;2022-10-13T16:46:45;13.50;99.90
8832;DHT22;4452;50.756;4.472;2022-10-13T16:49:14;13.60;99.90
8832;DHT22;4452;50.756;4.472;2022-10-13T16:51:39;13.60;99.90
8832;DHT22;4452;50.756;4.472;2022-10-13T16:54:05;13.60;99.90
8832;DHT22;4452;50.756;4.472;2022-10-13T16:56:31;13.50;99.90
8832;DHT22;4452;50.756;4.472;2022-10-13T16:58:59;13.50;99.90
8832;DHT22;4452;50.756;4.472;2022-10-13T17:01:25;13.50;99.90
8832;DHT22;4452;50.756;4.472;2022-10-13T17:03:52;13.50;99.90
8832;DHT22;4452;50.756;4.472;2022-10-13T17:06:19;13.50;99.90
8832;DHT22;4452;50.756;4.472;2022-10-13T17:08:46;13.50;99.90
8832;DHT22;4452;50.756;4.472;2022-10-13T17:11:17;13.50;99.90
8832;DHT22;4452;50.756;4.472;2022-10-13T17:13:44;13.50;99.90
8832;DHT22;4452;50.756;4.472;2022-10-13T17:16:09;13.50;99.90
8832;DHT22;4452;50.756;4.472;2022-10-13T17:18:35;13.50;99.90
8832;DHT22;4452;50.756;4.472;2022-10-13T17:21:03;13.50;99.90
8832;DHT22;4452;50.756;4.472;2022-10-13T17:23:30;13.50;99.90
8832;DHT22;4452;50.756;4.472;2022-10-13T17:26:00;13.50;99.90
8832;DHT22;4452;50.756;4.472;2022-10-13T17:28:26;13.50;99.90
8832;DHT22;4452;50.756;4.472;2022-10-13T17:31:03;13.60;99.90
8832;DHT22;4452;50.756;4.472;2022-10-13T17:33:32;13.50;99.90
8832;DHT22;4452;50.756;4.472;2022-10-13T17:36:43;13.50;99.90
8832;DHT22;4452;50.756;4.472;2022-10-13T17:38:51;13.50;99.90
8832;DHT22;4452;50.756;4.472;2022-10-13T17:41:18;13.50;99.90
8832;DHT22;4452;50.756;4.472;2022-10-13T17:43:44;13.50;99.90
8832;DHT22;4452;50.756;4.472;2022-10-13T17:46:13;13.50;99.90
8832;DHT22;4452;50.756;4.472;2022-10-13T17:48:40;13.50;99.90